PWSweather.com
Personal Weather Stations
Station Observations
948974
Valtournenche, AostaIT 11028

ValtournencheAostaIT 11028

Lat: 45.877222, Lon: 7.625556

Elevation: 5085.3018

Station Type: PCE-FWS 20

http://www.cdso.it

High Low Average
Temperature 48.0°F8.9°C 26.2°F-3.2°C 35.1°F1.7°C
Dew Point 23.1°F-4.9°C 8.9°F-12.8°C 13.2°F-10.4°C
Winds 10.0 mph 16.1 kmh Calm Calm 2.0 mph SE3.2 kmh SE
Wind Gusts 14.0 mph22.5 kmh -- 4.0 mph6.4 kmh
Humidity 78% 22% 43%
Pressure 30.11 in1019.6 mb 29.80 in1009.1 mb -
Precipitation 0.05 in1.3 mm - -
Hour Temp Dew Point Humidity Winds Wind Gusts Pressure Precip Precip Rate Daily Precip Total
12:14 AM 27.9°F-2.3°C 21.9°F-5.6°C 78% Calm Calm -- 29.98 in1015.2 mb 0.00 in0.0 mm 0.00 in0.0 mm 0.00 in0.0 mm
12:35 AM 29.1°F-1.6°C 23.1°F-4.9°C 78% Calm Calm -- 29.96 in1014.6 mb 0.00 in0.0 mm 0.00 in0.0 mm 0.00 in0.0 mm
12:56 AM 28.8°F-1.8°C 21.5°F-5.8°C 74% Calm Calm -- 29.96 in1014.6 mb 0.00 in0.0 mm 0.00 in0.0 mm 0.00 in0.0 mm
01:17 AM 27.7°F-2.4°C 18.9°F-7.3°C 69% Calm Calm -- 29.98 in1015.2 mb 0.00 in0.0 mm 0.00 in0.0 mm 0.00 in0.0 mm
01:38 AM 27.7°F-2.4°C 17.5°F-8.1°C 65% Calm Calm -- 29.98 in1015.2 mb 0.00 in0.0 mm 0.00 in0.0 mm 0.00 in0.0 mm
01:59 AM 27.9°F-2.3°C 17.6°F-8.0°C 65% Calm Calm -- 29.98 in1015.2 mb 0.00 in0.0 mm 0.00 in0.0 mm 0.00 in0.0 mm
02:20 AM 27.3°F-2.6°C 16.4°F-8.7°C 63% Calm Calm -- 29.98 in1015.2 mb 0.00 in0.0 mm 0.00 in0.0 mm 0.00 in0.0 mm
02:41 AM 27.5°F-2.5°C 15.8°F-9.0°C 61% Calm Calm -- 29.98 in1015.2 mb 0.00 in0.0 mm 0.00 in0.0 mm 0.00 in0.0 mm
03:02 AM 28.4°F-2.0°C 16.3°F-8.7°C 60% Calm Calm -- 29.97 in1014.9 mb 0.00 in0.0 mm 0.00 in0.0 mm 0.00 in0.0 mm
03:23 AM 27.3°F-2.6°C 14.1°F-9.9°C 57% Calm Calm -- 29.99 in1015.6 mb 0.00 in0.0 mm 0.00 in0.0 mm 0.00 in0.0 mm
03:44 AM 27.5°F-2.5°C 13.1°F-10.5°C 54% Calm Calm -- 29.98 in1015.2 mb 0.00 in0.0 mm 0.00 in0.0 mm 0.00 in0.0 mm
04:05 AM 27.5°F-2.5°C 12.6°F-10.8°C 53% Calm Calm -- 29.98 in1015.2 mb 0.00 in0.0 mm 0.00 in0.0 mm 0.00 in0.0 mm
04:26 AM 27.5°F-2.5°C 12.2°F-11.0°C 52% Calm Calm -- 29.98 in1015.2 mb 0.00 in0.0 mm 0.00 in0.0 mm 0.00 in0.0 mm
04:47 AM 27.0°F-2.8°C 12.1°F-11.1°C 53% Calm Calm -- 29.99 in1015.6 mb 0.00 in0.0 mm 0.00 in0.0 mm 0.00 in0.0 mm
05:08 AM 27.1°F-2.7°C 11.9°F-11.2°C 52% Calm Calm -- 29.98 in1015.2 mb 0.00 in0.0 mm 0.00 in0.0 mm 0.00 in0.0 mm
05:29 AM 27.3°F-2.6°C 11.6°F-11.3°C 51% Calm Calm -- 29.98 in1015.2 mb 0.00 in0.0 mm 0.00 in0.0 mm 0.00 in0.0 mm
05:50 AM 26.6°F-3.0°C 11.4°F-11.4°C 52% Calm Calm -- 29.98 in1015.2 mb 0.00 in0.0 mm 0.00 in0.0 mm 0.00 in0.0 mm
06:11 AM 26.2°F-3.2°C 12.3°F-10.9°C 55% Calm Calm -- 29.99 in1015.6 mb 0.00 in0.0 mm 0.00 in0.0 mm 0.00 in0.0 mm
06:32 AM 27.0°F-2.8°C 11.7°F-11.3°C 52% Calm Calm -- 29.98 in1015.2 mb 0.00 in0.0 mm 0.00 in0.0 mm 0.00 in0.0 mm
06:53 AM 26.6°F-3.0°C 11.8°F-11.2°C 53% Calm Calm -- 29.99 in1015.6 mb 0.00 in0.0 mm 0.00 in0.0 mm 0.00 in0.0 mm
07:14 AM 27.3°F-2.6°C 11.2°F-11.6°C 50% Calm Calm -- 29.99 in1015.6 mb 0.00 in0.0 mm 0.00 in0.0 mm 0.00 in0.0 mm
07:35 AM 27.1°F-2.7°C 11.4°F-11.4°C 51% Calm Calm -- 30.00 in1015.9 mb 0.00 in0.0 mm 0.00 in0.0 mm 0.00 in0.0 mm
07:56 AM 27.1°F-2.7°C 11.4°F-11.4°C 51% Calm Calm -- 30.00 in1015.9 mb 0.00 in0.0 mm 0.00 in0.0 mm 0.00 in0.0 mm
08:17 AM 28.2°F-2.1°C 11.1°F-11.6°C 48% Calm Calm -- 30.00 in1015.9 mb 0.00 in0.0 mm 0.00 in0.0 mm 0.00 in0.0 mm
08:38 AM 28.2°F-2.1°C 10.6°F-11.9°C 47% Calm Calm -- 30.00 in1015.9 mb 0.00 in0.0 mm 0.00 in0.0 mm 0.00 in0.0 mm
08:59 AM 29.7°F-1.3°C 12.4°F-10.9°C 48% Calm Calm -- 29.99 in1015.6 mb 0.00 in0.0 mm 0.00 in0.0 mm 0.00 in0.0 mm
09:20 AM 32.5°F0.3°C 13.6°F-10.2°C 45% 2.0 mph NW3.2 kmh NW 3.0 mph4.8 kmh 29.96 in1014.6 mb 0.00 in0.0 mm 0.00 in0.0 mm 0.00 in0.0 mm
09:41 AM 35.6°F2.0°C 14.2°F-9.9°C 41% 2.0 mph NW3.2 kmh NW 3.0 mph4.8 kmh 29.93 in1013.5 mb 0.00 in0.0 mm 0.00 in0.0 mm 0.00 in0.0 mm
10:02 AM 37.4°F3.0°C 18.0°F-7.8°C 45% 2.0 mph NW3.2 kmh NW 2.0 mph3.2 kmh 29.92 in1013.2 mb 0.01 in0.3 mm 0.02 in0.5 mm 0.01 in0.3 mm
10:23 AM 39.6°F4.2°C 11.4°F-11.4°C 31% 3.0 mph WNW4.8 kmh WNW 4.0 mph6.4 kmh 29.89 in1012.2 mb 0.04 in1.0 mm 0.09 in2.3 mm 0.04 in1.0 mm
10:44 AM 41.5°F5.3°C 10.1°F-12.2°C 27% 2.0 mph NW3.2 kmh NW 3.0 mph4.8 kmh 29.87 in1011.5 mb 0.05 in1.3 mm 0.03 in0.8 mm 0.05 in1.3 mm
11:05 AM 43.7°F6.5°C 10.2°F-12.1°C 25% 2.0 mph NW3.2 kmh NW 3.0 mph4.8 kmh 29.85 in1010.8 mb 0.04 in1.0 mm 0.00 in0.0 mm 0.05 in1.3 mm
11:26 AM 44.6°F7.0°C 10.1°F-12.2°C 24% 2.0 mph WNW3.2 kmh WNW 3.0 mph4.8 kmh 29.84 in1010.5 mb 0.01 in0.3 mm 0.00 in0.0 mm 0.05 in1.3 mm
11:47 AM 44.6°F7.0°C 9.1°F-12.7°C 23% 2.0 mph NW3.2 kmh NW 3.0 mph4.8 kmh 29.84 in1010.5 mb 0.00 in0.0 mm 0.00 in0.0 mm 0.05 in1.3 mm
12:08 PM 43.9°F6.6°C 10.4°F-12.0°C 25% 3.0 mph WSW4.8 kmh WSW 5.0 mph8.0 kmh 29.85 in1010.8 mb 0.00 in0.0 mm 0.00 in0.0 mm 0.05 in1.3 mm
12:29 PM 45.9°F7.7°C 10.2°F-12.1°C 23% 1.0 mph NE1.6 kmh NE 2.0 mph3.2 kmh 29.82 in1009.8 mb 0.00 in0.0 mm 0.00 in0.0 mm 0.05 in1.3 mm
12:50 PM 46.6°F8.1°C 12.7°F-10.7°C 25% 3.0 mph NE4.8 kmh NE 4.0 mph6.4 kmh 29.82 in1009.8 mb 0.00 in0.0 mm 0.00 in0.0 mm 0.05 in1.3 mm
01:11 PM 45.9°F7.7°C 10.2°F-12.1°C 23% 3.0 mph W4.8 kmh W 4.0 mph6.4 kmh 29.82 in1009.8 mb 0.00 in0.0 mm 0.00 in0.0 mm 0.05 in1.3 mm
01:32 PM 45.0°F7.2°C 10.4°F-12.0°C 24% 4.0 mph W6.4 kmh W 5.0 mph8.0 kmh 29.84 in1010.5 mb 0.00 in0.0 mm 0.00 in0.0 mm 0.05 in1.3 mm
01:53 PM 44.8°F7.1°C 9.3°F-12.6°C 23% 2.0 mph W3.2 kmh W 4.0 mph6.4 kmh 29.83 in1010.2 mb 0.00 in0.0 mm 0.00 in0.0 mm 0.05 in1.3 mm
02:14 PM 44.8°F7.1°C 10.2°F-12.1°C 24% 7.0 mph NW11.3 kmh NW 8.0 mph12.9 kmh 29.83 in1010.2 mb 0.00 in0.0 mm 0.00 in0.0 mm 0.05 in1.3 mm
02:35 PM 45.5°F7.5°C 8.9°F-12.8°C 22% 4.0 mph W6.4 kmh W 7.0 mph11.3 kmh 29.83 in1010.2 mb 0.00 in0.0 mm 0.00 in0.0 mm 0.05 in1.3 mm
02:56 PM 47.8°F8.8°C 13.7°F-10.2°C 25% 4.0 mph SE6.4 kmh SE 6.0 mph9.7 kmh 29.80 in1009.1 mb 0.00 in0.0 mm 0.00 in0.0 mm 0.05 in1.3 mm
03:17 PM 48.0°F8.9°C 13.9°F-10.1°C 25% 10.0 mph S16.1 kmh S 13.0 mph20.9 kmh 29.80 in1009.1 mb 0.00 in0.0 mm 0.00 in0.0 mm 0.05 in1.3 mm
03:38 PM 47.8°F8.8°C 13.7°F-10.2°C 25% 4.0 mph S6.4 kmh S 7.0 mph11.3 kmh 29.81 in1009.5 mb 0.00 in0.0 mm 0.00 in0.0 mm 0.05 in1.3 mm
03:59 PM 46.9°F8.3°C 13.0°F-10.6°C 25% 10.0 mph SW16.1 kmh SW 14.0 mph22.5 kmh 29.82 in1009.8 mb 0.00 in0.0 mm 0.00 in0.0 mm 0.05 in1.3 mm
04:20 PM 48.0°F8.9°C 13.9°F-10.1°C 25% 3.0 mph SE4.8 kmh SE 4.0 mph6.4 kmh 29.81 in1009.5 mb 0.00 in0.0 mm 0.00 in0.0 mm 0.05 in1.3 mm
04:41 PM 47.7°F8.7°C 13.6°F-10.2°C 25% 4.0 mph SW6.4 kmh SW 7.0 mph11.3 kmh 29.82 in1009.8 mb 0.00 in0.0 mm 0.00 in0.0 mm 0.05 in1.3 mm
05:02 PM 41.9°F5.5°C 11.2°F-11.6°C 28% 2.0 mph E3.2 kmh E 4.0 mph6.4 kmh 29.88 in1011.9 mb 0.00 in0.0 mm 0.00 in0.0 mm 0.05 in1.3 mm
05:23 PM 39.7°F4.3°C 13.0°F-10.6°C 33% 2.0 mph 3.2 kmh 4.0 mph6.4 kmh 29.92 in1013.2 mb 0.00 in0.0 mm 0.00 in0.0 mm 0.05 in1.3 mm
05:44 PM 38.3°F3.5°C 13.7°F-10.2°C 36% 7.0 mph ENE11.3 kmh ENE 8.0 mph12.9 kmh 29.94 in1013.9 mb 0.00 in0.0 mm 0.00 in0.0 mm 0.05 in1.3 mm
06:05 PM 37.8°F3.2°C 14.5°F-9.7°C 38% 6.0 mph 9.7 kmh 9.0 mph14.5 kmh 29.95 in1014.2 mb 0.00 in0.0 mm 0.00 in0.0 mm 0.05 in1.3 mm
06:26 PM 37.0°F2.8°C 12.0°F-11.1°C 35% 4.0 mph NE6.4 kmh NE 6.0 mph9.7 kmh 29.98 in1015.2 mb 0.00 in0.0 mm 0.00 in0.0 mm 0.05 in1.3 mm
06:47 PM 36.3°F2.4°C 13.2°F-10.4°C 38% 4.0 mph NW6.4 kmh NW 7.0 mph11.3 kmh 29.99 in1015.6 mb 0.00 in0.0 mm 0.00 in0.0 mm 0.05 in1.3 mm
07:08 PM 36.1°F2.3°C 13.0°F-10.6°C 38% 8.0 mph 12.9 kmh 11.0 mph17.7 kmh 30.00 in1015.9 mb 0.00 in0.0 mm 0.00 in0.0 mm 0.05 in1.3 mm
07:29 PM 36.0°F2.2°C 12.2°F-11.0°C 37% 6.0 mph 9.7 kmh 8.0 mph12.9 kmh 30.01 in1016.3 mb 0.00 in0.0 mm 0.00 in0.0 mm 0.05 in1.3 mm
07:50 PM 35.1°F1.7°C 14.3°F-9.8°C 42% 2.0 mph 3.2 kmh 3.0 mph4.8 kmh 30.03 in1016.9 mb 0.00 in0.0 mm 0.00 in0.0 mm 0.05 in1.3 mm
08:21 PM 35.4°F1.9°C 13.1°F-10.5°C 39% 7.0 mph 11.3 kmh 11.0 mph17.7 kmh 30.02 in1016.6 mb 0.00 in0.0 mm 0.00 in0.0 mm 0.05 in1.3 mm
08:42 PM 34.9°F1.6°C 12.9°F-10.6°C 40% 5.0 mph 8.0 kmh 9.0 mph14.5 kmh 30.03 in1016.9 mb 0.00 in0.0 mm 0.00 in0.0 mm 0.05 in1.3 mm
09:21 PM 32.7°F0.4°C 14.1°F-9.9°C 46% 2.0 mph 3.2 kmh 4.0 mph6.4 kmh 30.08 in1018.6 mb 0.00 in0.0 mm 0.00 in0.0 mm 0.05 in1.3 mm
09:42 PM 32.9°F0.5°C 14.2°F-9.9°C 46% 3.0 mph 4.8 kmh 6.0 mph9.7 kmh 30.08 in1018.6 mb 0.00 in0.0 mm 0.00 in0.0 mm 0.05 in1.3 mm
10:03 PM 32.3°F0.2°C 13.9°F-10.1°C 46% 3.0 mph 4.8 kmh 8.0 mph12.9 kmh 30.09 in1019.0 mb 0.00 in0.0 mm 0.00 in0.0 mm 0.05 in1.3 mm
10:21 PM 33.0°F0.6°C 13.7°F-10.2°C 44% 3.0 mph 4.8 kmh 4.0 mph6.4 kmh 30.08 in1018.6 mb 0.00 in0.0 mm 0.00 in0.0 mm 0.05 in1.3 mm
10:42 PM 32.4°F0.2°C 13.5°F-10.3°C 45% 3.0 mph 4.8 kmh 7.0 mph11.3 kmh 30.09 in1019.0 mb 0.00 in0.0 mm 0.00 in0.0 mm 0.05 in1.3 mm
11:03 PM 33.2°F0.7°C 13.4°F-10.3°C 43% 5.0 mph 8.0 kmh 9.0 mph14.5 kmh 30.08 in1018.6 mb 0.00 in0.0 mm 0.00 in0.0 mm 0.05 in1.3 mm
11:21 PM 31.5°F-0.3°C 13.7°F-10.2°C 47% 3.0 mph 4.8 kmh 4.0 mph6.4 kmh 30.11 in1019.6 mb 0.00 in0.0 mm 0.00 in0.0 mm 0.05 in1.3 mm
11:42 PM 31.5°F-0.3°C 13.9°F-10.1°C 48% 3.0 mph 4.8 kmh 4.0 mph6.4 kmh 30.11 in1019.6 mb 0.00 in0.0 mm 0.00 in0.0 mm 0.05 in1.3 mm